createdAt,value
2023-02-12T00:00:18.900Z,17.75
2023-02-12T00:01:21.909Z,17.33
2023-02-12T00:02:23.526Z,17.70
2023-02-12T00:03:25.153Z,16.80
2023-02-12T00:04:26.776Z,17.65
2023-02-12T00:05:28.723Z,17.85
2023-02-12T00:06:30.336Z,17.23
2023-02-12T00:07:32.049Z,17.90
2023-02-12T00:08:33.660Z,18.23
2023-02-12T00:09:36.306Z,17.25
2023-02-12T00:10:43.141Z,17.98
2023-02-12T00:11:44.739Z,17.90
2023-02-12T00:12:46.378Z,18.00
2023-02-12T00:13:48.031Z,18.90
2023-02-12T00:14:49.617Z,18.63
2023-02-12T00:15:51.194Z,19.85
2023-02-12T00:16:52.766Z,18.73
2023-02-12T00:17:54.271Z,20.00
2023-02-12T00:18:57.497Z,21.58
2023-02-12T00:19:59.065Z,20.50
2023-02-12T00:21:01.561Z,20.42
2023-02-12T00:22:03.160Z,22.52
2023-02-12T00:23:06.063Z,21.35
2023-02-12T00:24:07.696Z,22.52
2023-02-12T00:25:09.591Z,22.60
2023-02-12T00:26:14.692Z,22.98
2023-02-12T00:27:16.242Z,20.42
2023-02-12T00:28:17.938Z,20.05
2023-02-12T00:29:19.591Z,21.13
2023-02-12T00:30:21.358Z,20.80
2023-02-12T00:31:26.132Z,21.13
2023-02-12T00:32:28.039Z,21.38
2023-02-12T00:33:29.937Z,22.45
2023-02-12T00:34:31.531Z,21.90
2023-02-12T00:35:33.056Z,21.67
2023-02-12T00:36:34.618Z,22.30
2023-02-12T00:37:36.195Z,22.25
2023-02-12T00:38:37.766Z,22.88
2023-02-12T00:39:39.338Z,21.45
2023-02-12T00:40:40.916Z,21.83
2023-02-12T00:41:42.446Z,22.05
2023-02-12T00:42:43.989Z,25.77
2023-02-12T00:44:47.524Z,22.25
2023-02-12T00:45:49.253Z,21.67
2023-02-12T00:46:50.910Z,21.20
2023-02-12T00:47:52.504Z,21.40
2023-02-12T00:48:54.312Z,21.17
2023-02-12T00:49:55.884Z,20.55
2023-02-12T00:50:57.441Z,21.88
2023-02-12T00:51:59.003Z,21.40
2023-02-12T00:53:00.591Z,22.08
2023-02-12T00:54:02.166Z,22.23
2023-02-12T00:55:04.542Z,20.95
2023-02-12T00:56:06.382Z,22.50
2023-02-12T00:57:07.970Z,21.25
2023-02-12T00:58:10.085Z,22.20
2023-02-12T00:59:11.659Z,21.50
2023-02-12T01:00:14.879Z,21.10
2023-02-12T01:01:16.752Z,24.17
2023-02-12T01:02:18.365Z,22.70
2023-02-12T01:03:20.244Z,23.58
2023-02-12T01:04:22.536Z,23.85
2023-02-12T01:05:24.533Z,24.02
2023-02-12T01:06:26.293Z,25.17
2023-02-12T01:07:27.832Z,24.23
2023-02-12T01:08:30.181Z,24.25
2023-02-12T01:09:31.806Z,24.88
2023-02-12T01:10:33.453Z,24.88
2023-02-12T01:11:34.998Z,24.08
2023-02-12T01:12:36.608Z,25.40
2023-02-12T01:13:38.324Z,24.40
2023-02-12T01:14:39.859Z,25.13
2023-02-12T01:15:42.228Z,24.50
2023-02-12T01:16:44.112Z,25.67
2023-02-12T01:17:45.912Z,24.25
2023-02-12T01:18:48.346Z,23.15
2023-02-12T01:19:49.893Z,26.17
2023-02-12T01:20:51.414Z,24.73
2023-02-12T01:21:52.958Z,24.10
2023-02-12T01:22:54.543Z,24.38
2023-02-12T01:23:57.282Z,24.42
2023-02-12T01:24:58.991Z,25.08
2023-02-12T01:26:00.548Z,26.40
2023-02-12T01:27:02.116Z,24.80
2023-02-12T01:28:03.841Z,27.05
2023-02-12T01:29:07.036Z,26.23
2023-02-12T01:30:12.811Z,26.63
2023-02-12T01:31:17.857Z,25.73
2023-02-12T01:32:19.502Z,24.50
2023-02-12T01:33:21.134Z,24.63
2023-02-12T01:34:22.667Z,24.98
2023-02-12T01:35:24.250Z,23.58
2023-02-12T01:36:27.821Z,25.02
2023-02-12T01:37:29.371Z,24.02
2023-02-12T01:38:31.263Z,23.50
2023-02-12T01:39:34.021Z,22.65
2023-02-12T01:40:37.369Z,23.33
2023-02-12T01:41:44.872Z,22.13
2023-02-12T01:42:46.455Z,22.90
2023-02-12T01:44:16.176Z,22.50
2023-02-12T01:45:37.729Z,22.63
2023-02-12T01:46:40.333Z,25.38
2023-02-12T01:47:43.778Z,24.17
2023-02-12T01:48:47.541Z,23.33
2023-02-12T01:49:49.305Z,23.05
2023-02-12T01:50:53.113Z,22.80
2023-02-12T01:52:01.210Z,23.55
2023-02-12T01:53:03.098Z,23.38
2023-02-12T01:54:08.444Z,22.60
2023-02-12T01:55:11.498Z,21.02
2023-02-12T01:56:14.105Z,21.08
2023-02-12T01:57:17.039Z,20.83
2023-02-12T01:58:19.793Z,22.17
2023-02-12T01:59:22.256Z,22.85
2023-02-12T02:00:24.956Z,21.98
2023-02-12T02:01:29.780Z,22.90
2023-02-12T02:02:32.193Z,23.33
2023-02-12T02:03:38.036Z,22.65
2023-02-12T02:05:02.260Z,25.27
2023-02-12T02:06:09.842Z,24.02
2023-02-12T02:07:12.277Z,22.88
2023-02-12T02:08:14.292Z,23.70
2023-02-12T02:09:19.297Z,23.58
2023-02-12T02:10:20.851Z,22.67
2023-02-12T02:11:41.294Z,23.48
2023-02-12T02:13:01.670Z,22.98
2023-02-12T02:14:22.090Z,22.00
2023-02-12T02:15:26.581Z,19.75
2023-02-12T02:16:30.568Z,19.45
2023-02-12T02:17:58.610Z,18.17
2023-02-12T02:19:10.863Z,17.60
2023-02-12T02:20:45.222Z,17.02
2023-02-12T02:22:11.098Z,18.85
2023-02-12T02:23:51.304Z,19.80
2023-02-12T02:25:11.661Z,21.23
2023-02-12T02:26:29.104Z,18.63
2023-02-12T02:27:40.343Z,21.02
2023-02-12T02:28:59.216Z,20.10
2023-02-12T02:30:16.228Z,20.38
2023-02-12T02:31:25.676Z,20.58
2023-02-12T02:32:31.884Z,20.70
2023-02-12T02:33:36.237Z,20.35
2023-02-12T02:34:50.367Z,19.92
2023-02-12T02:36:33.475Z,19.13
2023-02-12T02:37:47.416Z,18.30
2023-02-12T02:39:05.329Z,19.17
2023-02-12T02:40:14.485Z,18.73
2023-02-12T02:41:26.169Z,17.63
2023-02-12T02:42:39.988Z,19.75
2023-02-12T02:43:47.538Z,18.88
2023-02-12T02:45:02.262Z,20.33
2023-02-12T02:46:36.337Z,18.88
2023-02-12T02:47:48.276Z,20.85
2023-02-12T02:48:54.124Z,20.95
2023-02-12T02:50:01.207Z,20.00
2023-02-12T02:51:09.386Z,20.25
2023-02-12T02:52:18.499Z,21.17
2023-02-12T02:53:27.662Z,20.30
2023-02-12T02:54:44.212Z,20.83
2023-02-12T02:55:51.000Z,19.85
2023-02-12T02:56:59.354Z,20.45
2023-02-12T02:58:06.028Z,20.65
2023-02-12T02:59:16.365Z,20.83
2023-02-12T03:00:20.847Z,22.10
2023-02-12T03:01:27.121Z,21.30
2023-02-12T03:02:33.163Z,20.30
2023-02-12T03:03:52.950Z,20.65
2023-02-12T03:05:17.524Z,19.83
2023-02-12T03:06:41.166Z,20.25
2023-02-12T03:07:52.349Z,19.05
2023-02-12T03:09:00.596Z,19.50
2023-02-12T03:10:16.681Z,19.77
2023-02-12T03:11:29.918Z,19.30
2023-02-12T03:12:44.267Z,19.92
2023-02-12T03:13:55.515Z,18.25
2023-02-12T03:15:10.116Z,20.02
2023-02-12T03:16:29.046Z,19.20
2023-02-12T03:17:36.893Z,19.25
2023-02-12T03:18:47.032Z,18.58
2023-02-12T03:19:55.383Z,18.77
2023-02-12T03:21:11.406Z,18.67
2023-02-12T03:22:19.331Z,18.77
2023-02-12T03:23:26.923Z,18.05
2023-02-12T03:24:37.066Z,18.92
2023-02-12T03:25:44.630Z,18.63
2023-02-12T03:27:00.137Z,20.40
2023-02-12T03:28:11.735Z,18.63
2023-02-12T03:29:13.811Z,17.63
2023-02-12T03:30:16.107Z,18.92
2023-02-12T03:31:23.329Z,18.40
2023-02-12T03:32:35.843Z,19.05
2023-02-12T03:34:23.886Z,18.70
2023-02-12T03:35:33.353Z,18.42
2023-02-12T03:36:52.648Z,17.10
2023-02-12T03:38:01.668Z,18.05
2023-02-12T03:39:26.261Z,17.05
2023-02-12T03:40:37.819Z,16.23
2023-02-12T03:41:47.803Z,16.73
2023-02-12T03:43:00.554Z,17.15
2023-02-12T03:44:14.788Z,16.50
2023-02-12T03:45:41.226Z,16.85
2023-02-12T03:47:01.361Z,18.60
2023-02-12T03:48:15.440Z,19.23
2023-02-12T03:49:51.688Z,20.80
2023-02-12T03:51:05.157Z,19.50
2023-02-12T03:52:06.831Z,19.27
2023-02-12T03:53:08.461Z,18.90
2023-02-12T03:54:12.535Z,19.42
2023-02-12T03:55:14.618Z,18.95
2023-02-12T03:57:11.833Z,20.23
2023-02-12T03:58:24.264Z,21.38
2023-02-12T03:59:26.583Z,18.95
2023-02-12T04:00:28.455Z,19.27
2023-02-12T04:01:31.529Z,19.15
2023-02-12T04:02:34.243Z,15.05
2023-02-12T04:03:36.214Z,16.35
2023-02-12T04:04:38.633Z,17.58
2023-02-12T04:05:40.211Z,14.68
2023-02-12T04:06:42.421Z,18.70
2023-02-12T04:07:44.114Z,15.40
2023-02-12T04:08:45.703Z,17.35
2023-02-12T04:09:47.400Z,18.00
2023-02-12T04:11:04.140Z,20.45
2023-02-12T04:12:33.588Z,19.85
2023-02-12T04:14:09.481Z,19.58
2023-02-12T04:15:23.602Z,20.15
2023-02-12T04:17:14.699Z,18.83
2023-02-12T04:18:25.045Z,19.60
2023-02-12T04:19:53.661Z,18.17
2023-02-12T04:21:13.796Z,19.05
2023-02-12T04:22:54.179Z,19.02
2023-02-12T04:24:14.342Z,19.00
2023-02-12T04:25:48.139Z,19.60
2023-02-12T04:26:55.402Z,19.75
2023-02-12T04:28:06.646Z,21.38
2023-02-12T04:29:17.359Z,20.40
2023-02-12T04:30:35.005Z,21.20
2023-02-12T04:31:44.961Z,20.95
2023-02-12T04:32:48.301Z,19.98
2023-02-12T04:34:04.387Z,22.30
2023-02-12T04:35:19.248Z,21.52
2023-02-12T04:36:28.875Z,19.55
2023-02-12T04:37:38.420Z,19.73
2023-02-12T04:39:01.812Z,20.02
2023-02-12T04:40:08.424Z,20.35
2023-02-12T04:41:10.697Z,21.00
2023-02-12T04:42:12.426Z,20.60
2023-02-12T04:43:14.135Z,19.50
2023-02-12T04:44:24.007Z,20.42
2023-02-12T04:45:34.339Z,20.60
2023-02-12T04:46:35.895Z,20.70
2023-02-12T04:47:37.851Z,19.25
2023-02-12T04:48:52.495Z,20.08
2023-02-12T04:49:54.115Z,20.77
2023-02-12T04:50:55.817Z,19.73
2023-02-12T04:51:57.492Z,19.05
2023-02-12T04:52:59.078Z,19.00
2023-02-12T04:54:00.678Z,20.05
2023-02-12T04:55:02.234Z,19.45
2023-02-12T04:56:04.054Z,20.60
2023-02-12T04:57:05.675Z,22.30
2023-02-12T04:58:07.569Z,23.08
2023-02-12T04:59:09.588Z,24.08
2023-02-12T05:00:14.483Z,22.70
2023-02-12T05:01:16.496Z,19.52
2023-02-12T05:02:18.080Z,20.00
2023-02-12T05:03:19.662Z,19.65
2023-02-12T05:04:21.294Z,18.67
2023-02-12T05:05:23.200Z,17.80
2023-02-12T05:06:24.900Z,19.05
2023-02-12T05:07:26.777Z,19.30
2023-02-12T05:08:28.281Z,19.92
2023-02-12T05:09:29.943Z,18.88
2023-02-12T05:10:31.536Z,20.02
2023-02-12T05:11:33.539Z,20.30
2023-02-12T05:12:35.057Z,20.63
2023-02-12T05:13:37.007Z,20.70
2023-02-12T05:14:38.628Z,22.08
2023-02-12T05:15:40.278Z,20.98
2023-02-12T05:16:42.162Z,20.02
2023-02-12T05:17:45.786Z,20.92
2023-02-12T05:18:47.757Z,22.20
2023-02-12T05:19:49.423Z,22.10
2023-02-12T05:21:01.769Z,20.50
2023-02-12T05:22:04.368Z,19.13
2023-02-12T05:23:05.961Z,18.23
2023-02-12T05:24:07.912Z,15.88
2023-02-12T05:25:09.554Z,17.42
2023-02-12T05:26:14.768Z,16.85
2023-02-12T05:27:16.297Z,15.15
2023-02-12T05:28:17.894Z,14.57
2023-02-12T05:29:19.599Z,15.07
2023-02-12T05:30:21.284Z,15.02
2023-02-12T05:31:22.979Z,14.57
2023-02-12T05:32:24.847Z,15.18
2023-02-12T05:33:26.389Z,14.77
2023-02-12T05:34:27.996Z,16.10
2023-02-12T05:35:29.531Z,15.15
2023-02-12T05:36:31.078Z,14.35
2023-02-12T05:37:36.240Z,15.32
2023-02-12T05:38:37.873Z,16.45
2023-02-12T05:39:39.499Z,17.15
2023-02-12T05:40:43.108Z,19.00
2023-02-12T05:41:44.687Z,18.05
2023-02-12T05:42:46.268Z,17.70
2023-02-12T05:43:49.758Z,17.27
2023-02-12T05:44:51.453Z,19.10
2023-02-12T05:45:53.352Z,19.67
2023-02-12T05:46:55.246Z,19.60
2023-02-12T05:47:56.868Z,19.23
2023-02-12T05:48:58.691Z,19.00
2023-02-12T05:50:00.236Z,19.17
2023-02-12T05:51:04.404Z,17.80
2023-02-12T05:52:06.065Z,18.23
2023-02-12T05:53:07.586Z,18.75
2023-02-12T05:54:10.853Z,19.13
2023-02-12T05:55:12.450Z,19.90
2023-02-12T05:56:18.108Z,20.17
2023-02-12T05:57:19.697Z,20.65
2023-02-12T05:58:21.266Z,20.05
2023-02-12T05:59:23.601Z,18.55
2023-02-12T06:00:25.196Z,18.70
2023-02-12T06:01:30.045Z,18.40
2023-02-12T06:02:33.954Z,17.77
2023-02-12T06:03:35.581Z,36.33
2023-02-12T06:04:37.105Z,23.30
2023-02-12T06:05:38.659Z,20.38
2023-02-12T06:06:42.306Z,18.80
2023-02-12T06:07:43.898Z,20.05
2023-02-12T06:08:49.141Z,19.55
2023-02-12T06:09:50.839Z,18.08
2023-02-12T06:10:52.432Z,18.95
2023-02-12T06:11:54.119Z,18.25
2023-02-12T06:12:55.746Z,19.58
2023-02-12T06:13:57.328Z,19.60
2023-02-12T06:14:58.923Z,20.15
2023-02-12T06:16:01.359Z,19.73
2023-02-12T06:17:03.112Z,19.30
2023-02-12T06:18:04.658Z,19.63
2023-02-12T06:19:06.815Z,19.35
2023-02-12T06:20:08.493Z,19.08
2023-02-12T06:21:10.016Z,18.38
2023-02-12T06:22:11.578Z,19.02
2023-02-12T06:23:13.117Z,18.52
2023-02-12T06:24:16.230Z,18.20
2023-02-12T06:25:18.088Z,17.67
2023-02-12T06:26:20.534Z,17.13
2023-02-12T06:27:22.078Z,16.02
2023-02-12T06:28:23.801Z,16.40
2023-02-12T06:29:25.433Z,15.60
2023-02-12T06:30:27.085Z,15.23
2023-02-12T06:31:33.258Z,14.82
2023-02-12T06:32:34.830Z,15.20
2023-02-12T06:33:36.414Z,15.52
2023-02-12T06:34:37.924Z,13.93
2023-02-12T06:35:39.740Z,14.68
2023-02-12T06:36:44.674Z,14.48
2023-02-12T06:37:46.339Z,13.48
2023-02-12T06:38:48.963Z,15.32
2023-02-12T06:39:50.550Z,13.85
2023-02-12T06:40:52.073Z,16.50
2023-02-12T06:41:54.542Z,16.05
2023-02-12T06:42:56.502Z,16.27
2023-02-12T06:43:58.259Z,16.85
2023-02-12T06:44:59.841Z,16.15
2023-02-12T06:46:02.415Z,16.58
2023-02-12T06:47:04.060Z,16.98
2023-02-12T06:48:05.982Z,18.33
2023-02-12T06:49:07.641Z,16.65
2023-02-12T06:50:09.596Z,16.45
2023-02-12T06:51:16.774Z,16.50
2023-02-12T06:52:18.333Z,15.00
2023-02-12T06:53:19.902Z,15.55
2023-02-12T06:54:21.477Z,16.10
2023-02-12T06:55:23.114Z,16.00
2023-02-12T06:56:26.534Z,16.53
2023-02-12T06:57:30.013Z,15.68
2023-02-12T06:58:31.947Z,14.77
2023-02-12T06:59:33.483Z,15.00
2023-02-12T07:00:35.098Z,15.52
2023-02-12T07:01:37.456Z,15.07
2023-02-12T07:02:39.189Z,16.13
2023-02-12T07:03:52.907Z,16.60
2023-02-12T07:04:54.450Z,15.75
2023-02-12T07:05:56.202Z,13.87
2023-02-12T07:06:57.895Z,14.50
2023-02-12T07:07:59.457Z,14.55
2023-02-12T07:09:01.896Z,14.60
2023-02-12T07:10:03.502Z,15.00
2023-02-12T07:11:06.087Z,14.43
2023-02-12T07:12:07.825Z,13.82
2023-02-12T07:13:09.465Z,14.32
2023-02-12T07:14:17.212Z,13.87
2023-02-12T07:15:18.747Z,14.32
2023-02-12T07:16:20.983Z,13.75
2023-02-12T07:17:22.615Z,15.07
2023-02-12T07:18:24.929Z,14.88
2023-02-12T07:19:26.840Z,14.43
2023-02-12T07:20:28.373Z,13.73
2023-02-12T07:21:30.820Z,14.07
2023-02-12T07:22:35.979Z,15.63
2023-02-12T07:23:38.301Z,16.50
2023-02-12T07:24:39.873Z,21.87
2023-02-12T07:25:41.431Z,21.48
2023-02-12T07:26:42.982Z,20.90
2023-02-12T07:27:44.527Z,17.70
2023-02-12T07:28:46.065Z,18.65
2023-02-12T07:29:47.853Z,20.67
2023-02-12T07:30:49.557Z,17.07
2023-02-12T07:31:51.152Z,15.43
2023-02-12T07:32:52.678Z,15.43
2023-02-12T07:33:56.110Z,14.57
2023-02-12T07:34:57.695Z,13.43
2023-02-12T07:36:03.097Z,13.17
2023-02-12T07:37:04.630Z,13.53
2023-02-12T07:38:06.189Z,12.53
2023-02-12T07:39:07.754Z,13.50
2023-02-12T07:40:09.926Z,13.00
2023-02-12T07:41:17.295Z,12.53
2023-02-12T07:42:18.827Z,13.80
2023-02-12T07:43:20.356Z,13.60
2023-02-12T07:44:21.926Z,12.53
2023-02-12T07:45:23.769Z,13.10
2023-02-12T07:46:31.238Z,14.17
2023-02-12T07:47:32.874Z,13.40
2023-02-12T07:48:34.422Z,12.43
2023-02-12T07:49:36.085Z,12.87
2023-02-12T07:50:37.645Z,12.20
2023-02-12T07:51:39.264Z,13.10
2023-02-12T07:52:40.811Z,12.60
2023-02-12T07:53:42.708Z,12.77
2023-02-12T07:54:44.296Z,12.30
2023-02-12T07:55:45.835Z,11.37
2023-02-12T07:56:47.668Z,12.43
2023-02-12T07:57:49.241Z,11.87
2023-02-12T07:58:52.654Z,12.20
2023-02-12T07:59:54.208Z,12.93
2023-02-12T08:00:55.729Z,12.97
2023-02-12T08:01:58.424Z,12.73
2023-02-12T08:03:00.032Z,12.13
2023-02-12T08:04:10.275Z,12.87
2023-02-12T08:05:11.860Z,13.03
2023-02-12T08:06:16.877Z,12.00
2023-02-12T08:07:18.477Z,11.30
2023-02-12T08:08:20.028Z,11.53
2023-02-12T08:09:24.711Z,12.67
2023-02-12T08:10:26.303Z,12.97
2023-02-12T08:11:28.960Z,11.87
2023-02-12T08:12:30.512Z,11.70
2023-02-12T08:13:32.414Z,12.43
2023-02-12T08:14:33.981Z,11.87
2023-02-12T08:15:35.579Z,12.27
2023-02-12T08:16:39.640Z,12.63
2023-02-12T08:17:43.555Z,11.23
2023-02-12T08:18:45.666Z,11.60
2023-02-12T08:19:47.162Z,11.27
2023-02-12T08:20:48.687Z,11.60
2023-02-12T08:21:52.333Z,11.03
2023-02-12T08:22:53.903Z,11.57
2023-02-12T08:23:56.721Z,11.53
2023-02-12T08:24:58.284Z,12.23
2023-02-12T08:26:16.427Z,11.17
2023-02-12T08:27:17.995Z,11.77
2023-02-12T08:28:19.854Z,11.23
2023-02-12T08:29:24.530Z,12.07
2023-02-12T08:30:26.108Z,11.47
2023-02-12T08:31:32.667Z,11.37
2023-02-12T08:32:34.244Z,11.60
2023-02-12T08:33:36.160Z,11.17
2023-02-12T08:34:37.737Z,11.10
2023-02-12T08:35:39.298Z,11.97
2023-02-12T08:36:40.913Z,11.13
2023-02-12T08:37:42.491Z,11.20
2023-02-12T08:38:46.149Z,11.27
2023-02-12T08:39:48.941Z,10.63
2023-02-12T08:40:50.546Z,11.37
2023-02-12T08:41:55.239Z,11.20
2023-02-12T08:42:56.789Z,11.17
2023-02-12T08:44:01.094Z,10.20
2023-02-12T08:45:02.637Z,10.23
2023-02-12T08:46:15.578Z,11.33
2023-02-12T08:47:17.132Z,10.13
2023-02-12T08:48:20.598Z,11.07
2023-02-12T08:49:27.958Z,11.00
2023-02-12T08:50:29.495Z,11.10
2023-02-12T08:51:33.464Z,11.23
2023-02-12T08:52:35.788Z,11.07
2023-02-12T08:53:39.354Z,10.37
2023-02-12T08:54:42.187Z,10.83
2023-02-12T08:55:49.645Z,11.77
2023-02-12T08:56:54.963Z,10.57
2023-02-12T08:57:57.946Z,10.13
2023-02-12T08:59:01.279Z,10.73
2023-02-12T09:00:03.723Z,10.47
2023-02-12T09:01:09.083Z,10.20
2023-02-12T09:02:11.228Z,10.03
2023-02-12T09:03:12.839Z,10.30
2023-02-12T09:04:19.652Z,10.30
2023-02-12T09:05:21.190Z,10.13
2023-02-12T09:06:24.731Z,10.20
2023-02-12T09:07:26.292Z,10.30
2023-02-12T09:08:27.849Z,10.27
2023-02-12T09:09:29.374Z,10.90
2023-02-12T09:10:30.945Z,10.43
2023-02-12T09:11:34.442Z,10.90
2023-02-12T09:12:35.954Z,10.63
2023-02-12T09:13:37.518Z,11.07
2023-02-12T09:14:39.320Z,10.43
2023-02-12T09:15:44.986Z,10.50
2023-02-12T09:16:46.700Z,11.03
2023-02-12T09:17:48.243Z,11.20
2023-02-12T09:18:49.824Z,10.97
2023-02-12T09:19:51.400Z,11.17
2023-02-12T09:20:52.933Z,10.50
2023-02-12T09:21:56.654Z,11.13
2023-02-12T09:22:59.647Z,11.30
2023-02-12T09:24:03.628Z,10.83
2023-02-12T09:25:06.334Z,11.17
2023-02-12T09:26:10.793Z,10.57
2023-02-12T09:27:12.347Z,10.30
2023-02-12T09:28:14.789Z,10.10
2023-02-12T09:29:16.368Z,10.13
2023-02-12T09:30:18.370Z,10.47
2023-02-12T09:31:26.745Z,10.33
2023-02-12T09:32:28.426Z,10.07
2023-02-12T09:33:29.978Z,10.40
2023-02-12T09:34:34.985Z,10.60
2023-02-12T09:35:37.874Z,10.13
2023-02-12T09:36:39.463Z,10.07
2023-02-12T09:37:41.800Z,10.03
2023-02-12T09:38:44.043Z,10.20
2023-02-12T09:39:45.605Z,10.50
2023-02-12T09:40:52.871Z,10.20
2023-02-12T09:42:03.258Z,9.67
2023-02-12T09:43:09.593Z,10.13
2023-02-12T09:44:38.148Z,10.40
2023-02-12T09:45:49.096Z,10.93
2023-02-12T09:46:59.845Z,11.17
2023-02-12T09:48:07.407Z,10.43
2023-02-12T09:49:14.775Z,10.40
2023-02-12T09:50:28.418Z,11.27
2023-02-12T09:51:31.768Z,10.70
2023-02-12T09:52:35.214Z,10.73
2023-02-12T09:53:42.287Z,10.20
2023-02-12T09:54:44.880Z,11.63
2023-02-12T09:55:46.897Z,10.83
2023-02-12T09:56:53.174Z,11.00
2023-02-12T09:57:55.139Z,10.90
2023-02-12T09:59:01.473Z,11.07
2023-02-12T10:00:08.114Z,11.33
2023-02-12T10:01:18.305Z,11.33
2023-02-12T10:02:23.824Z,10.87
2023-02-12T10:03:29.973Z,10.50
2023-02-12T10:04:31.591Z,10.90
2023-02-12T10:05:41.245Z,10.93
2023-02-12T10:06:53.394Z,10.43
2023-02-12T10:08:33.836Z,11.27
2023-02-12T10:09:38.867Z,11.83
2023-02-12T10:11:07.308Z,11.37
2023-02-12T10:12:32.430Z,11.00
2023-02-12T10:14:04.662Z,11.27
2023-02-12T10:15:19.330Z,11.97
2023-02-12T10:16:50.449Z,12.67
2023-02-12T10:18:23.557Z,11.60
2023-02-12T10:19:54.996Z,12.43
2023-02-12T10:21:18.654Z,11.77
2023-02-12T10:23:01.350Z,11.97
2023-02-12T10:24:41.471Z,13.00
2023-02-12T10:25:43.070Z,12.77
2023-02-12T10:26:51.269Z,12.90
2023-02-12T10:27:56.188Z,13.50
2023-02-12T10:29:23.019Z,13.40
2023-02-12T10:30:44.782Z,12.83
2023-02-12T10:31:53.316Z,13.53
2023-02-12T10:33:02.106Z,12.90
2023-02-12T10:34:15.740Z,12.77
2023-02-12T10:35:19.350Z,12.27
2023-02-12T10:36:46.319Z,14.07
2023-02-12T10:38:16.133Z,12.80
2023-02-12T10:39:27.564Z,12.77
2023-02-12T10:40:34.067Z,13.37
2023-02-12T10:41:41.024Z,14.10
2023-02-12T10:42:45.092Z,13.87
2023-02-12T10:43:46.720Z,13.33
2023-02-12T10:44:48.310Z,14.43
2023-02-12T10:45:50.959Z,13.63
2023-02-12T10:46:52.659Z,13.57
2023-02-12T10:48:15.764Z,13.63
2023-02-12T10:49:19.269Z,14.20
2023-02-12T10:50:39.193Z,13.37
2023-02-12T10:51:50.295Z,13.87
2023-02-12T10:52:56.536Z,14.50
2023-02-12T10:54:34.796Z,14.13
2023-02-12T10:55:39.567Z,13.17
2023-02-12T10:56:41.253Z,14.77
2023-02-12T10:57:42.804Z,14.10
2023-02-12T10:58:50.368Z,15.60
2023-02-12T10:59:54.503Z,14.53
2023-02-12T11:00:58.714Z,14.30
2023-02-12T11:02:00.515Z,14.57
2023-02-12T11:03:10.877Z,14.33
2023-02-12T11:04:26.394Z,13.37
2023-02-12T11:05:30.949Z,13.50
2023-02-12T11:06:32.867Z,14.17
2023-02-12T11:07:48.814Z,14.50
2023-02-12T11:08:50.637Z,14.23
2023-02-12T11:09:54.652Z,15.07
2023-02-12T11:11:03.894Z,14.70
2023-02-12T11:12:15.542Z,14.10
2023-02-12T11:13:28.105Z,14.47
2023-02-12T11:14:30.786Z,15.30
2023-02-12T11:15:47.377Z,15.47
2023-02-12T11:17:00.242Z,15.20
2023-02-12T11:18:05.689Z,14.57
2023-02-12T11:19:19.805Z,15.00
2023-02-12T11:20:23.833Z,14.80
2023-02-12T11:21:25.443Z,15.73
2023-02-12T11:22:27.428Z,16.23
2023-02-12T11:23:43.250Z,14.93
2023-02-12T11:24:46.832Z,15.37
2023-02-12T11:26:00.709Z,15.37
2023-02-12T11:27:25.223Z,15.83
2023-02-12T11:28:28.010Z,15.13
2023-02-12T11:29:29.811Z,15.97
2023-02-12T11:30:31.978Z,15.23
2023-02-12T11:31:38.271Z,14.57
2023-02-12T11:32:39.939Z,15.40
2023-02-12T11:33:41.494Z,15.63
2023-02-12T11:34:43.205Z,16.07
2023-02-12T11:35:57.578Z,15.87
2023-02-12T11:37:00.290Z,15.20
2023-02-12T11:38:03.463Z,16.43
2023-02-12T11:39:07.797Z,15.57
2023-02-12T11:40:36.326Z,15.63
2023-02-12T11:41:42.387Z,15.33
2023-02-12T11:42:50.225Z,15.83
2023-02-12T11:43:53.037Z,16.13
2023-02-12T11:44:58.936Z,15.60
2023-02-12T11:46:02.919Z,15.77
2023-02-12T11:47:18.729Z,15.63
2023-02-12T11:48:25.137Z,15.90
2023-02-12T11:49:34.682Z,16.20
2023-02-12T11:50:36.397Z,15.60
2023-02-12T11:51:38.172Z,16.30
2023-02-12T11:52:41.022Z,15.90
2023-02-12T11:53:51.711Z,16.07
2023-02-12T11:54:59.248Z,15.93
2023-02-12T11:56:04.752Z,16.23
2023-02-12T11:57:06.483Z,15.77
2023-02-12T11:58:21.127Z,15.87
2023-02-12T11:59:31.888Z,15.53
2023-02-12T12:00:38.580Z,16.17
2023-02-12T12:01:41.808Z,15.10
2023-02-12T12:02:53.639Z,16.23
2023-02-12T12:04:13.091Z,16.93
2023-02-12T12:05:24.181Z,16.50
2023-02-12T12:06:33.106Z,16.20
2023-02-12T12:07:38.951Z,17.47
2023-02-12T12:08:59.068Z,16.80
2023-02-12T12:10:07.521Z,17.33
2023-02-12T12:11:18.187Z,16.80
2023-02-12T12:12:36.726Z,16.63
2023-02-12T12:13:49.659Z,16.00
2023-02-12T12:15:17.537Z,15.70
2023-02-12T12:16:52.805Z,16.33
2023-02-12T12:18:43.709Z,16.13
2023-02-12T12:20:12.016Z,15.70
2023-02-12T12:21:38.060Z,16.70
2023-02-12T12:23:00.904Z,16.73
2023-02-12T12:24:17.556Z,16.57
2023-02-12T12:25:34.675Z,17.50
2023-02-12T12:26:39.309Z,17.27
2023-02-12T12:28:05.660Z,16.87
2023-02-12T12:29:22.284Z,17.23
2023-02-12T12:30:37.786Z,17.60
2023-02-12T12:31:47.906Z,16.40
2023-02-12T12:32:54.049Z,16.60
2023-02-12T12:34:06.114Z,17.00
2023-02-12T12:35:15.382Z,16.63
2023-02-12T12:36:30.051Z,16.33
2023-02-12T12:37:58.051Z,17.43
2023-02-12T12:39:19.702Z,17.23
2023-02-12T12:41:08.553Z,16.30
2023-02-12T12:42:27.973Z,15.60
2023-02-12T12:43:38.497Z,16.43
2023-02-12T12:44:47.226Z,17.07
2023-02-12T12:45:58.010Z,16.73
2023-02-12T12:47:14.777Z,16.40
2023-02-12T12:48:37.770Z,16.23
2023-02-12T12:49:58.183Z,15.40
2023-02-12T12:51:20.969Z,16.27
2023-02-12T12:52:25.200Z,14.97
2023-02-12T12:53:29.733Z,15.47
2023-02-12T12:54:48.951Z,15.57
2023-02-12T12:56:32.332Z,15.23
2023-02-12T12:57:56.411Z,14.60
2023-02-12T12:59:19.397Z,15.53
2023-02-12T13:00:39.680Z,15.57
2023-02-12T13:01:47.232Z,14.80
2023-02-12T13:03:03.700Z,15.63
2023-02-12T13:04:30.240Z,14.73
2023-02-12T13:06:05.850Z,15.93
2023-02-12T13:07:16.319Z,14.63
2023-02-12T13:08:48.619Z,14.70
2023-02-12T13:09:56.073Z,14.27
2023-02-12T13:11:02.893Z,14.77
2023-02-12T13:12:26.867Z,15.97
2023-02-12T13:13:37.065Z,14.63
2023-02-12T13:14:53.235Z,15.03
2023-02-12T13:16:00.850Z,14.83
2023-02-12T13:17:14.948Z,15.50
2023-02-12T13:18:34.911Z,14.47
2023-02-12T13:19:58.919Z,14.97
2023-02-12T13:21:16.083Z,15.60
2023-02-12T13:22:40.564Z,16.67
2023-02-12T13:23:57.931Z,15.93
2023-02-12T13:25:19.666Z,15.37
2023-02-12T13:26:45.710Z,16.63
2023-02-12T13:27:49.163Z,17.27
2023-02-12T13:29:16.498Z,17.67
2023-02-12T13:30:27.067Z,16.77
2023-02-12T13:31:33.823Z,16.33
2023-02-12T13:32:43.416Z,17.07
2023-02-12T13:34:12.176Z,17.93
2023-02-12T13:35:19.516Z,17.93
2023-02-12T13:36:21.290Z,18.00
2023-02-12T13:37:47.260Z,18.10
2023-02-12T13:38:59.916Z,17.33
2023-02-12T13:40:06.416Z,18.47
2023-02-12T13:41:10.594Z,18.87
2023-02-12T13:42:20.985Z,18.40
2023-02-12T13:43:44.357Z,18.70
2023-02-12T13:44:58.839Z,18.73
2023-02-12T13:46:14.130Z,18.20
2023-02-12T13:47:48.165Z,18.73
2023-02-12T13:49:27.065Z,18.53
2023-02-12T13:50:40.708Z,18.73
2023-02-12T13:52:03.916Z,17.77
2023-02-12T13:53:16.157Z,18.47
2023-02-12T13:54:23.028Z,19.70
2023-02-12T13:56:04.694Z,19.13
2023-02-12T13:57:16.457Z,17.63
2023-02-12T13:58:37.585Z,18.73
2023-02-12T13:59:41.276Z,18.70
2023-02-12T14:00:52.040Z,19.07
2023-02-12T14:01:53.741Z,18.37
2023-02-12T14:02:55.571Z,18.97
2023-02-12T14:04:14.998Z,17.70
2023-02-12T14:05:21.330Z,18.17
2023-02-12T14:06:24.976Z,18.40
2023-02-12T14:07:52.288Z,17.37
2023-02-12T14:09:09.334Z,17.67
2023-02-12T14:10:39.458Z,17.53
2023-02-12T14:11:53.263Z,17.80
2023-02-12T14:13:16.350Z,18.67
2023-02-12T14:14:31.561Z,17.53
2023-02-12T14:15:36.648Z,17.30
2023-02-12T14:16:40.046Z,19.23
2023-02-12T14:17:51.796Z,18.00
2023-02-12T14:19:13.375Z,18.43
2023-02-12T14:20:30.739Z,18.57
2023-02-12T14:21:35.695Z,17.73
2023-02-12T14:22:43.901Z,18.47
2023-02-12T14:23:46.891Z,19.33
2023-02-12T14:24:54.035Z,20.47
2023-02-12T14:25:58.109Z,20.63
2023-02-12T14:27:00.053Z,21.17
2023-02-12T14:28:37.503Z,19.80
2023-02-12T14:29:39.098Z,18.43
2023-02-12T14:30:41.159Z,19.83
2023-02-12T14:31:43.058Z,19.43
2023-02-12T14:32:50.654Z,19.57
2023-02-12T14:34:05.069Z,18.27